sensor_id;sensor_type;location;lat;lon;timestamp;P1;durP1;ratioP1;P2;durP2;ratioP2
53505;SDS011;39388;50.936;6.848;2022-10-31T00:00:07;6.43;;;4.93;;
53505;SDS011;39388;50.936;6.848;2022-10-31T00:02:38;9.43;;;5.03;;
53505;SDS011;39388;50.936;6.848;2022-10-31T00:05:09;12.80;;;4.93;;
53505;SDS011;39388;50.936;6.848;2022-10-31T00:07:40;7.68;;;5.05;;
53505;SDS011;39388;50.936;6.848;2022-10-31T00:10:10;10.57;;;5.53;;
53505;SDS011;39388;50.936;6.848;2022-10-31T00:12:40;9.93;;;5.43;;
53505;SDS011;39388;50.936;6.848;2022-10-31T00:15:11;8.35;;;5.47;;
53505;SDS011;39388;50.936;6.848;2022-10-31T00:17:41;11.00;;;5.47;;
53505;SDS011;39388;50.936;6.848;2022-10-31T00:20:11;10.15;;;5.18;;
53505;SDS011;39388;50.936;6.848;2022-10-31T00:22:42;7.57;;;5.03;;
53505;SDS011;39388;50.936;6.848;2022-10-31T00:25:12;11.40;;;5.00;;
53505;SDS011;39388;50.936;6.848;2022-10-31T00:27:43;9.07;;;5.00;;
53505;SDS011;39388;50.936;6.848;2022-10-31T00:30:13;10.70;;;5.40;;
53505;SDS011;39388;50.936;6.848;2022-10-31T00:32:43;9.35;;;4.93;;
53505;SDS011;39388;50.936;6.848;2022-10-31T00:35:14;8.38;;;5.30;;
53505;SDS011;39388;50.936;6.848;2022-10-31T00:37:44;10.48;;;5.00;;
53505;SDS011;39388;50.936;6.848;2022-10-31T00:40:15;10.65;;;5.28;;
53505;SDS011;39388;50.936;6.848;2022-10-31T00:42:45;7.50;;;5.18;;
53505;SDS011;39388;50.936;6.848;2022-10-31T00:45:16;7.85;;;4.75;;
53505;SDS011;39388;50.936;6.848;2022-10-31T00:47:46;11.13;;;5.32;;
53505;SDS011;39388;50.936;6.848;2022-10-31T00:50:17;8.90;;;4.97;;
53505;SDS011;39388;50.936;6.848;2022-10-31T00:52:47;11.55;;;5.40;;
53505;SDS011;39388;50.936;6.848;2022-10-31T00:55:17;9.63;;;5.38;;
53505;SDS011;39388;50.936;6.848;2022-10-31T00:57:48;8.85;;;5.10;;
53505;SDS011;39388;50.936;6.848;2022-10-31T01:00:18;12.50;;;5.47;;
53505;SDS011;39388;50.936;6.848;2022-10-31T01:02:49;8.48;;;5.30;;
53505;SDS011;39388;50.936;6.848;2022-10-31T01:05:19;11.23;;;5.53;;
53505;SDS011;39388;50.936;6.848;2022-10-31T01:07:50;7.20;;;5.15;;
53505;SDS011;39388;50.936;6.848;2022-10-31T01:10:20;9.77;;;5.50;;
53505;SDS011;39388;50.936;6.848;2022-10-31T01:12:50;9.43;;;4.72;;
53505;SDS011;39388;50.936;6.848;2022-10-31T01:15:21;7.22;;;5.07;;
53505;SDS011;39388;50.936;6.848;2022-10-31T01:17:52;10.77;;;5.35;;
53505;SDS011;39388;50.936;6.848;2022-10-31T01:20:23;7.85;;;5.28;;
53505;SDS011;39388;50.936;6.848;2022-10-31T01:22:53;9.63;;;5.22;;
53505;SDS011;39388;50.936;6.848;2022-10-31T01:25:23;9.57;;;5.40;;
53505;SDS011;39388;50.936;6.848;2022-10-31T01:27:54;9.98;;;5.95;;
53505;SDS011;39388;50.936;6.848;2022-10-31T01:30:24;11.55;;;5.10;;
53505;SDS011;39388;50.936;6.848;2022-10-31T01:32:54;9.43;;;5.15;;
53505;SDS011;39388;50.936;6.848;2022-10-31T01:35:25;6.75;;;4.82;;
53505;SDS011;39388;50.936;6.848;2022-10-31T01:37:55;8.57;;;4.88;;
53505;SDS011;39388;50.936;6.848;2022-10-31T01:40:28;9.68;;;5.28;;
53505;SDS011;39388;50.936;6.848;2022-10-31T01:42:59;9.73;;;5.18;;
53505;SDS011;39388;50.936;6.848;2022-10-31T01:45:30;9.32;;;5.15;;
53505;SDS011;39388;50.936;6.848;2022-10-31T01:48:00;8.38;;;5.32;;
53505;SDS011;39388;50.936;6.848;2022-10-31T01:50:32;11.40;;;4.90;;
53505;SDS011;39388;50.936;6.848;2022-10-31T01:53:07;9.90;;;5.68;;
53505;SDS011;39388;50.936;6.848;2022-10-31T01:55:41;10.07;;;5.57;;
53505;SDS011;39388;50.936;6.848;2022-10-31T01:58:18;7.68;;;4.82;;
53505;SDS011;39388;50.936;6.848;2022-10-31T02:00:51;8.70;;;5.25;;
53505;SDS011;39388;50.936;6.848;2022-10-31T02:03:26;9.18;;;4.95;;
53505;SDS011;39388;50.936;6.848;2022-10-31T02:05:57;9.52;;;5.65;;
53505;SDS011;39388;50.936;6.848;2022-10-31T02:08:29;12.93;;;5.60;;
53505;SDS011;39388;50.936;6.848;2022-10-31T02:11:01;9.38;;;5.10;;
53505;SDS011;39388;50.936;6.848;2022-10-31T02:13:31;10.50;;;5.60;;
53505;SDS011;39388;50.936;6.848;2022-10-31T02:16:04;9.98;;;5.15;;
53505;SDS011;39388;50.936;6.848;2022-10-31T02:18:34;9.57;;;5.28;;
53505;SDS011;39388;50.936;6.848;2022-10-31T02:24:15;12.20;;;5.32;;
53505;SDS011;39388;50.936;6.848;2022-10-31T02:30:15;11.55;;;5.35;;
53505;SDS011;39388;50.936;6.848;2022-10-31T02:32:54;10.85;;;5.60;;
53505;SDS011;39388;50.936;6.848;2022-10-31T02:35:49;8.55;;;4.97;;
53505;SDS011;39388;50.936;6.848;2022-10-31T02:44:27;9.00;;;5.28;;
53505;SDS011;39388;50.936;6.848;2022-10-31T02:52:25;10.75;;;5.40;;
53505;SDS011;39388;50.936;6.848;2022-10-31T02:54:57;11.07;;;5.70;;
53505;SDS011;39388;50.936;6.848;2022-10-31T02:57:29;9.20;;;5.38;;
53505;SDS011;39388;50.936;6.848;2022-10-31T03:00:05;7.60;;;5.43;;
53505;SDS011;39388;50.936;6.848;2022-10-31T03:15:56;8.65;;;4.85;;
53505;SDS011;39388;50.936;6.848;2022-10-31T03:21:55;8.48;;;5.65;;
53505;SDS011;39388;50.936;6.848;2022-10-31T03:24:34;8.88;;;5.30;;
53505;SDS011;39388;50.936;6.848;2022-10-31T03:27:09;10.43;;;5.53;;
53505;SDS011;39388;50.936;6.848;2022-10-31T03:29:41;13.95;;;6.18;;
53505;SDS011;39388;50.936;6.848;2022-10-31T03:32:16;12.50;;;5.90;;
53505;SDS011;39388;50.936;6.848;2022-10-31T03:34:51;6.93;;;5.20;;
53505;SDS011;39388;50.936;6.848;2022-10-31T03:37:25;10.20;;;5.80;;
53505;SDS011;39388;50.936;6.848;2022-10-31T03:39:59;11.07;;;5.65;;
53505;SDS011;39388;50.936;6.848;2022-10-31T03:42:33;10.77;;;5.82;;
53505;SDS011;39388;50.936;6.848;2022-10-31T03:47:49;10.80;;;5.60;;
53505;SDS011;39388;50.936;6.848;2022-10-31T03:50:20;9.20;;;5.32;;
53505;SDS011;39388;50.936;6.848;2022-10-31T03:56:04;9.90;;;5.93;;
53505;SDS011;39388;50.936;6.848;2022-10-31T03:58:55;8.63;;;5.03;;
53505;SDS011;39388;50.936;6.848;2022-10-31T04:01:30;13.35;;;5.82;;
53505;SDS011;39388;50.936;6.848;2022-10-31T04:04:04;12.30;;;5.28;;
53505;SDS011;39388;50.936;6.848;2022-10-31T04:06:36;11.88;;;5.88;;
53505;SDS011;39388;50.936;6.848;2022-10-31T04:09:11;12.35;;;5.43;;
53505;SDS011;39388;50.936;6.848;2022-10-31T04:16:47;7.80;;;5.43;;
53505;SDS011;39388;50.936;6.848;2022-10-31T04:19:17;11.43;;;5.57;;
53505;SDS011;39388;50.936;6.848;2022-10-31T04:21:48;9.20;;;5.60;;
53505;SDS011;39388;50.936;6.848;2022-10-31T04:24:18;9.80;;;5.50;;
53505;SDS011;39388;50.936;6.848;2022-10-31T04:26:48;11.60;;;4.93;;
53505;SDS011;39388;50.936;6.848;2022-10-31T04:29:19;10.55;;;5.70;;
53505;SDS011;39388;50.936;6.848;2022-10-31T04:31:49;9.80;;;5.40;;
53505;SDS011;39388;50.936;6.848;2022-10-31T04:34:19;8.27;;;5.55;;
53505;SDS011;39388;50.936;6.848;2022-10-31T04:36:50;11.23;;;6.00;;
53505;SDS011;39388;50.936;6.848;2022-10-31T04:39:21;7.90;;;5.28;;
53505;SDS011;39388;50.936;6.848;2022-10-31T04:41:52;12.43;;;6.07;;
53505;SDS011;39388;50.936;6.848;2022-10-31T04:44:22;8.98;;;5.75;;
53505;SDS011;39388;50.936;6.848;2022-10-31T04:46:52;9.18;;;5.80;;
53505;SDS011;39388;50.936;6.848;2022-10-31T04:49:23;10.90;;;5.95;;
53505;SDS011;39388;50.936;6.848;2022-10-31T04:51:53;8.48;;;5.20;;
53505;SDS011;39388;50.936;6.848;2022-10-31T04:54:24;10.07;;;5.78;;
53505;SDS011;39388;50.936;6.848;2022-10-31T04:56:54;10.43;;;6.13;;
53505;SDS011;39388;50.936;6.848;2022-10-31T04:59:24;9.55;;;5.78;;
53505;SDS011;39388;50.936;6.848;2022-10-31T05:01:55;9.98;;;5.57;;
53505;SDS011;39388;50.936;6.848;2022-10-31T05:04:25;13.07;;;6.38;;
53505;SDS011;39388;50.936;6.848;2022-10-31T05:06:55;8.73;;;5.05;;
53505;SDS011;39388;50.936;6.848;2022-10-31T05:09:26;8.85;;;5.22;;
53505;SDS011;39388;50.936;6.848;2022-10-31T05:11:56;7.63;;;5.50;;
53505;SDS011;39388;50.936;6.848;2022-10-31T05:14:27;8.95;;;4.80;;
53505;SDS011;39388;50.936;6.848;2022-10-31T05:16:57;10.68;;;5.00;;
53505;SDS011;39388;50.936;6.848;2022-10-31T05:19:27;7.97;;;5.68;;
53505;SDS011;39388;50.936;6.848;2022-10-31T05:21:58;8.50;;;5.70;;
53505;SDS011;39388;50.936;6.848;2022-10-31T05:24:28;15.32;;;5.97;;
53505;SDS011;39388;50.936;6.848;2022-10-31T05:26:58;8.07;;;5.55;;
53505;SDS011;39388;50.936;6.848;2022-10-31T05:29:29;11.55;;;5.80;;
53505;SDS011;39388;50.936;6.848;2022-10-31T05:32:03;8.48;;;5.63;;
53505;SDS011;39388;50.936;6.848;2022-10-31T05:34:33;10.50;;;5.88;;
53505;SDS011;39388;50.936;6.848;2022-10-31T05:37:03;8.52;;;5.68;;
53505;SDS011;39388;50.936;6.848;2022-10-31T05:39:34;9.38;;;5.38;;
53505;SDS011;39388;50.936;6.848;2022-10-31T05:42:04;9.85;;;5.68;;
53505;SDS011;39388;50.936;6.848;2022-10-31T05:44:35;8.00;;;5.72;;
53505;SDS011;39388;50.936;6.848;2022-10-31T05:47:05;11.95;;;5.65;;
53505;SDS011;39388;50.936;6.848;2022-10-31T05:49:35;8.35;;;5.53;;
53505;SDS011;39388;50.936;6.848;2022-10-31T05:52:06;12.70;;;5.95;;
53505;SDS011;39388;50.936;6.848;2022-10-31T05:54:36;10.32;;;6.00;;
53505;SDS011;39388;50.936;6.848;2022-10-31T05:57:06;7.82;;;5.53;;
53505;SDS011;39388;50.936;6.848;2022-10-31T05:59:37;6.80;;;5.60;;
53505;SDS011;39388;50.936;6.848;2022-10-31T06:02:07;11.32;;;5.95;;
53505;SDS011;39388;50.936;6.848;2022-10-31T06:04:37;10.50;;;5.95;;
53505;SDS011;39388;50.936;6.848;2022-10-31T06:07:08;11.95;;;5.68;;
53505;SDS011;39388;50.936;6.848;2022-10-31T06:09:38;9.55;;;6.05;;
53505;SDS011;39388;50.936;6.848;2022-10-31T06:12:08;12.70;;;5.80;;
53505;SDS011;39388;50.936;6.848;2022-10-31T06:14:39;8.52;;;5.50;;
53505;SDS011;39388;50.936;6.848;2022-10-31T06:17:09;10.10;;;5.43;;
53505;SDS011;39388;50.936;6.848;2022-10-31T06:19:40;9.95;;;5.50;;
53505;SDS011;39388;50.936;6.848;2022-10-31T06:22:10;11.07;;;5.68;;
53505;SDS011;39388;50.936;6.848;2022-10-31T06:24:43;10.73;;;5.57;;
53505;SDS011;39388;50.936;6.848;2022-10-31T06:27:14;10.27;;;6.10;;
53505;SDS011;39388;50.936;6.848;2022-10-31T06:29:44;8.45;;;6.07;;
53505;SDS011;39388;50.936;6.848;2022-10-31T06:32:17;15.48;;;6.20;;
53505;SDS011;39388;50.936;6.848;2022-10-31T06:34:49;9.93;;;5.85;;
53505;SDS011;39388;50.936;6.848;2022-10-31T06:37:19;10.52;;;5.97;;
53505;SDS011;39388;50.936;6.848;2022-10-31T06:39:49;8.98;;;6.05;;
53505;SDS011;39388;50.936;6.848;2022-10-31T06:42:20;8.80;;;4.88;;
53505;SDS011;39388;50.936;6.848;2022-10-31T06:44:50;9.32;;;5.75;;
53505;SDS011;39388;50.936;6.848;2022-10-31T06:47:20;8.95;;;5.60;;
53505;SDS011;39388;50.936;6.848;2022-10-31T06:49:51;8.88;;;5.82;;
53505;SDS011;39388;50.936;6.848;2022-10-31T06:52:21;8.77;;;5.95;;
53505;SDS011;39388;50.936;6.848;2022-10-31T06:54:53;13.45;;;6.00;;
53505;SDS011;39388;50.936;6.848;2022-10-31T06:57:23;9.75;;;5.85;;
53505;SDS011;39388;50.936;6.848;2022-10-31T06:59:54;8.68;;;5.63;;
53505;SDS011;39388;50.936;6.848;2022-10-31T07:02:24;9.60;;;5.25;;
53505;SDS011;39388;50.936;6.848;2022-10-31T07:04:54;8.40;;;5.82;;
53505;SDS011;39388;50.936;6.848;2022-10-31T07:07:25;9.07;;;6.38;;
53505;SDS011;39388;50.936;6.848;2022-10-31T07:09:55;10.05;;;5.45;;
53505;SDS011;39388;50.936;6.848;2022-10-31T07:12:25;11.52;;;5.68;;
53505;SDS011;39388;50.936;6.848;2022-10-31T07:14:55;10.32;;;5.97;;
53505;SDS011;39388;50.936;6.848;2022-10-31T07:17:26;9.90;;;5.20;;
53505;SDS011;39388;50.936;6.848;2022-10-31T07:19:56;13.27;;;6.10;;
53505;SDS011;39388;50.936;6.848;2022-10-31T07:22:36;7.80;;;5.60;;
53505;SDS011;39388;50.936;6.848;2022-10-31T07:25:07;8.27;;;5.45;;
53505;SDS011;39388;50.936;6.848;2022-10-31T07:27:41;9.63;;;5.68;;
53505;SDS011;39388;50.936;6.848;2022-10-31T07:30:13;6.82;;;5.20;;
53505;SDS011;39388;50.936;6.848;2022-10-31T07:32:48;10.47;;;6.20;;
53505;SDS011;39388;50.936;6.848;2022-10-31T07:35:20;10.25;;;5.57;;
53505;SDS011;39388;50.936;6.848;2022-10-31T07:37:53;8.63;;;5.55;;
53505;SDS011;39388;50.936;6.848;2022-10-31T07:40:24;8.13;;;4.97;;
53505;SDS011;39388;50.936;6.848;2022-10-31T07:42:54;9.80;;;5.90;;
53505;SDS011;39388;50.936;6.848;2022-10-31T07:45:27;10.55;;;5.55;;
53505;SDS011;39388;50.936;6.848;2022-10-31T07:47:58;8.82;;;6.07;;
53505;SDS011;39388;50.936;6.848;2022-10-31T07:50:29;8.90;;;5.43;;
53505;SDS011;39388;50.936;6.848;2022-10-31T07:55:35;8.55;;;5.57;;
53505;SDS011;39388;50.936;6.848;2022-10-31T07:58:07;13.85;;;6.70;;
53505;SDS011;39388;50.936;6.848;2022-10-31T08:00:39;8.93;;;5.78;;
53505;SDS011;39388;50.936;6.848;2022-10-31T08:03:14;10.88;;;5.70;;
53505;SDS011;39388;50.936;6.848;2022-10-31T08:08:17;11.57;;;5.80;;
53505;SDS011;39388;50.936;6.848;2022-10-31T08:10:47;8.20;;;5.55;;
53505;SDS011;39388;50.936;6.848;2022-10-31T08:13:17;10.82;;;6.53;;
53505;SDS011;39388;50.936;6.848;2022-10-31T08:15:48;10.07;;;6.70;;
53505;SDS011;39388;50.936;6.848;2022-10-31T08:18:20;8.43;;;5.43;;
53505;SDS011;39388;50.936;6.848;2022-10-31T08:20:53;8.77;;;5.28;;
53505;SDS011;39388;50.936;6.848;2022-10-31T08:23:23;9.45;;;5.75;;
53505;SDS011;39388;50.936;6.848;2022-10-31T08:25:53;11.35;;;5.50;;
53505;SDS011;39388;50.936;6.848;2022-10-31T08:28:24;9.82;;;5.85;;
53505;SDS011;39388;50.936;6.848;2022-10-31T08:30:54;10.57;;;6.00;;
53505;SDS011;39388;50.936;6.848;2022-10-31T08:35:57;9.35;;;5.78;;
53505;SDS011;39388;50.936;6.848;2022-10-31T08:38:28;8.60;;;5.70;;
53505;SDS011;39388;50.936;6.848;2022-10-31T08:40:58;10.95;;;6.32;;
53505;SDS011;39388;50.936;6.848;2022-10-31T08:43:29;12.48;;;6.38;;
53505;SDS011;39388;50.936;6.848;2022-10-31T08:45:59;9.65;;;5.82;;
53505;SDS011;39388;50.936;6.848;2022-10-31T08:48:30;11.15;;;6.40;;
53505;SDS011;39388;50.936;6.848;2022-10-31T08:51:02;12.93;;;6.50;;
53505;SDS011;39388;50.936;6.848;2022-10-31T08:53:32;10.15;;;5.90;;
53505;SDS011;39388;50.936;6.848;2022-10-31T08:56:02;13.38;;;5.82;;
53505;SDS011;39388;50.936;6.848;2022-10-31T08:58:33;10.65;;;6.20;;
53505;SDS011;39388;50.936;6.848;2022-10-31T09:01:03;8.27;;;5.68;;
53505;SDS011;39388;50.936;6.848;2022-10-31T09:03:34;10.20;;;5.88;;
53505;SDS011;39388;50.936;6.848;2022-10-31T09:06:04;7.63;;;5.60;;
53505;SDS011;39388;50.936;6.848;2022-10-31T09:08:38;8.85;;;5.57;;
53505;SDS011;39388;50.936;6.848;2022-10-31T09:11:08;9.93;;;5.65;;
53505;SDS011;39388;50.936;6.848;2022-10-31T09:13:39;8.23;;;5.60;;
53505;SDS011;39388;50.936;6.848;2022-10-31T09:16:09;12.55;;;5.72;;
53505;SDS011;39388;50.936;6.848;2022-10-31T09:18:40;9.57;;;5.95;;
53505;SDS011;39388;50.936;6.848;2022-10-31T09:21:10;11.88;;;6.40;;
53505;SDS011;39388;50.936;6.848;2022-10-31T09:23:40;10.20;;;6.15;;
53505;SDS011;39388;50.936;6.848;2022-10-31T09:26:11;10.68;;;5.93;;
53505;SDS011;39388;50.936;6.848;2022-10-31T09:28:41;11.07;;;5.82;;
53505;SDS011;39388;50.936;6.848;2022-10-31T09:31:11;10.98;;;6.47;;
53505;SDS011;39388;50.936;6.848;2022-10-31T09:33:42;9.07;;;5.20;;
53505;SDS011;39388;50.936;6.848;2022-10-31T09:36:12;9.27;;;5.15;;
53505;SDS011;39388;50.936;6.848;2022-10-31T09:38:43;11.50;;;5.95;;
53505;SDS011;39388;50.936;6.848;2022-10-31T09:41:17;10.77;;;5.63;;
53505;SDS011;39388;50.936;6.848;2022-10-31T09:46:47;9.57;;;5.40;;
53505;SDS011;39388;50.936;6.848;2022-10-31T09:49:36;8.40;;;5.10;;
53505;SDS011;39388;50.936;6.848;2022-10-31T09:55:09;9.68;;;5.32;;
53505;SDS011;39388;50.936;6.848;2022-10-31T09:57:46;10.45;;;4.88;;
53505;SDS011;39388;50.936;6.848;2022-10-31T10:00:19;11.57;;;5.40;;
53505;SDS011;39388;50.936;6.848;2022-10-31T10:02:53;13.75;;;5.35;;
53505;SDS011;39388;50.936;6.848;2022-10-31T10:05:29;7.55;;;4.35;;
53505;SDS011;39388;50.936;6.848;2022-10-31T10:25:33;6.97;;;4.18;;
53505;SDS011;39388;50.936;6.848;2022-10-31T10:28:30;10.10;;;4.70;;
53505;SDS011;39388;50.936;6.848;2022-10-31T10:31:15;10.65;;;4.80;;
53505;SDS011;39388;50.936;6.848;2022-10-31T10:42:18;8.70;;;4.97;;
53505;SDS011;39388;50.936;6.848;2022-10-31T10:45:13;8.70;;;4.47;;
53505;SDS011;39388;50.936;6.848;2022-10-31T10:48:30;6.75;;;4.53;;
53505;SDS011;39388;50.936;6.848;2022-10-31T10:51:05;11.73;;;4.85;;
53505;SDS011;39388;50.936;6.848;2022-10-31T10:56:39;9.50;;;4.30;;
53505;SDS011;39388;50.936;6.848;2022-10-31T10:59:19;10.20;;;4.70;;
53505;SDS011;39388;50.936;6.848;2022-10-31T11:01:51;10.02;;;4.53;;
53505;SDS011;39388;50.936;6.848;2022-10-31T11:04:30;8.00;;;4.82;;
53505;SDS011;39388;50.936;6.848;2022-10-31T11:09:35;8.68;;;4.47;;
53505;SDS011;39388;50.936;6.848;2022-10-31T11:12:10;8.43;;;4.50;;
53505;SDS011;39388;50.936;6.848;2022-10-31T11:14:49;9.45;;;4.45;;
53505;SDS011;39388;50.936;6.848;2022-10-31T11:22:44;8.50;;;4.15;;
53505;SDS011;39388;50.936;6.848;2022-10-31T11:27:59;10.77;;;4.65;;
53505;SDS011;39388;50.936;6.848;2022-10-31T11:30:35;8.40;;;4.50;;
53505;SDS011;39388;50.936;6.848;2022-10-31T11:33:32;7.53;;;4.82;;
53505;SDS011;39388;50.936;6.848;2022-10-31T11:36:15;9.80;;;4.20;;
53505;SDS011;39388;50.936;6.848;2022-10-31T11:38:54;6.50;;;4.03;;
53505;SDS011;39388;50.936;6.848;2022-10-31T11:41:28;7.60;;;4.32;;
53505;SDS011;39388;50.936;6.848;2022-10-31T11:44:03;11.20;;;4.38;;
53505;SDS011;39388;50.936;6.848;2022-10-31T11:46:50;7.90;;;4.78;;
53505;SDS011;39388;50.936;6.848;2022-10-31T11:52:08;8.55;;;4.40;;
53505;SDS011;39388;50.936;6.848;2022-10-31T11:54:50;12.43;;;4.18;;
53505;SDS011;39388;50.936;6.848;2022-10-31T12:00:28;7.35;;;4.60;;
53505;SDS011;39388;50.936;6.848;2022-10-31T12:08:32;6.18;;;4.40;;
53505;SDS011;39388;50.936;6.848;2022-10-31T12:14:11;10.38;;;4.43;;
53505;SDS011;39388;50.936;6.848;2022-10-31T12:25:38;6.40;;;4.30;;
53505;SDS011;39388;50.936;6.848;2022-10-31T12:31:17;13.80;;;4.25;;
53505;SDS011;39388;50.936;6.848;2022-10-31T12:37:07;7.80;;;3.83;;
53505;SDS011;39388;50.936;6.848;2022-10-31T12:45:59;9.63;;;3.85;;
53505;SDS011;39388;50.936;6.848;2022-10-31T12:57:35;7.13;;;3.47;;
53505;SDS011;39388;50.936;6.848;2022-10-31T13:00:13;8.80;;;4.00;;
53505;SDS011;39388;50.936;6.848;2022-10-31T13:02:50;9.32;;;3.85;;
53505;SDS011;39388;50.936;6.848;2022-10-31T13:05:37;7.50;;;3.78;;
53505;SDS011;39388;50.936;6.848;2022-10-31T13:08:12;9.00;;;3.63;;
53505;SDS011;39388;50.936;6.848;2022-10-31T13:10:49;6.10;;;3.78;;
53505;SDS011;39388;50.936;6.848;2022-10-31T13:13:33;7.95;;;3.97;;
53505;SDS011;39388;50.936;6.848;2022-10-31T13:21:39;7.60;;;3.83;;
53505;SDS011;39388;50.936;6.848;2022-10-31T13:24:31;6.80;;;3.90;;
53505;SDS011;39388;50.936;6.848;2022-10-31T13:27:11;7.03;;;3.67;;
53505;SDS011;39388;50.936;6.848;2022-10-31T13:29:53;7.10;;;3.90;;
53505;SDS011;39388;50.936;6.848;2022-10-31T13:32:30;7.13;;;4.00;;
53505;SDS011;39388;50.936;6.848;2022-10-31T13:37:56;7.65;;;3.78;;
53505;SDS011;39388;50.936;6.848;2022-10-31T13:40:42;6.07;;;3.72;;
53505;SDS011;39388;50.936;6.848;2022-10-31T13:46:24;9.73;;;3.88;;
53505;SDS011;39388;50.936;6.848;2022-10-31T13:48:56;5.22;;;3.53;;
53505;SDS011;39388;50.936;6.848;2022-10-31T13:51:27;14.65;;;4.13;;
53505;SDS011;39388;50.936;6.848;2022-10-31T13:54:00;7.60;;;3.65;;
53505;SDS011;39388;50.936;6.848;2022-10-31T13:56:36;8.43;;;3.50;;
53505;SDS011;39388;50.936;6.848;2022-10-31T14:01:50;8.73;;;3.92;;
53505;SDS011;39388;50.936;6.848;2022-10-31T14:04:55;7.55;;;3.65;;
53505;SDS011;39388;50.936;6.848;2022-10-31T14:07:30;8.63;;;3.80;;
53505;SDS011;39388;50.936;6.848;2022-10-31T14:10:06;8.18;;;3.65;;
53505;SDS011;39388;50.936;6.848;2022-10-31T14:12:52;6.05;;;3.42;;
53505;SDS011;39388;50.936;6.848;2022-10-31T14:15:56;10.05;;;3.85;;
53505;SDS011;39388;50.936;6.848;2022-10-31T14:18:34;7.78;;;3.80;;
53505;SDS011;39388;50.936;6.848;2022-10-31T14:21:41;7.55;;;3.80;;
53505;SDS011;39388;50.936;6.848;2022-10-31T14:29:33;8.23;;;3.50;;
53505;SDS011;39388;50.936;6.848;2022-10-31T14:35:03;9.95;;;3.83;;
53505;SDS011;39388;50.936;6.848;2022-10-31T14:40:51;9.75;;;3.75;;
53505;SDS011;39388;50.936;6.848;2022-10-31T14:49:21;8.40;;;3.40;;
53505;SDS011;39388;50.936;6.848;2022-10-31T14:52:07;8.20;;;3.63;;
53505;SDS011;39388;50.936;6.848;2022-10-31T14:54:44;5.05;;;3.28;;
53505;SDS011;39388;50.936;6.848;2022-10-31T14:59:56;6.18;;;3.10;;
53505;SDS011;39388;50.936;6.848;2022-10-31T15:03:18;8.85;;;3.35;;
53505;SDS011;39388;50.936;6.848;2022-10-31T15:05:33;6.97;;;3.60;;
53505;SDS011;39388;50.936;6.848;2022-10-31T15:08:14;6.70;;;3.30;;
53505;SDS011;39388;50.936;6.848;2022-10-31T15:11:10;10.32;;;3.78;;
53505;SDS011;39388;50.936;6.848;2022-10-31T15:13:46;6.00;;;3.22;;
53505;SDS011;39388;50.936;6.848;2022-10-31T15:16:30;7.68;;;3.60;;
53505;SDS011;39388;50.936;6.848;2022-10-31T15:19:05;9.82;;;3.45;;
53505;SDS011;39388;50.936;6.848;2022-10-31T15:21:41;6.18;;;3.00;;
53505;SDS011;39388;50.936;6.848;2022-10-31T15:24:17;8.60;;;3.65;;
53505;SDS011;39388;50.936;6.848;2022-10-31T15:26:49;9.15;;;3.30;;
53505;SDS011;39388;50.936;6.848;2022-10-31T15:29:22;8.38;;;3.42;;
53505;SDS011;39388;50.936;6.848;2022-10-31T15:34:32;5.97;;;3.10;;
53505;SDS011;39388;50.936;6.848;2022-10-31T15:37:12;7.57;;;2.90;;
53505;SDS011;39388;50.936;6.848;2022-10-31T15:39:45;6.47;;;3.17;;
53505;SDS011;39388;50.936;6.848;2022-10-31T15:42:18;10.98;;;3.30;;
53505;SDS011;39388;50.936;6.848;2022-10-31T15:44:52;7.22;;;3.28;;
53505;SDS011;39388;50.936;6.848;2022-10-31T15:47:30;8.23;;;3.25;;
53505;SDS011;39388;50.936;6.848;2022-10-31T15:50:05;6.55;;;3.45;;
53505;SDS011;39388;50.936;6.848;2022-10-31T15:52:47;7.38;;;3.63;;
53505;SDS011;39388;50.936;6.848;2022-10-31T15:55:24;9.52;;;3.47;;
53505;SDS011;39388;50.936;6.848;2022-10-31T15:57:58;4.95;;;3.00;;
53505;SDS011;39388;50.936;6.848;2022-10-31T16:00:35;7.50;;;3.25;;
53505;SDS011;39388;50.936;6.848;2022-10-31T16:03:29;7.55;;;3.25;;
53505;SDS011;39388;50.936;6.848;2022-10-31T16:06:01;5.00;;;3.35;;
53505;SDS011;39388;50.936;6.848;2022-10-31T16:08:34;6.72;;;3.20;;
53505;SDS011;39388;50.936;6.848;2022-10-31T16:13:38;6.93;;;3.67;;
53505;SDS011;39388;50.936;6.848;2022-10-31T16:16:28;7.40;;;3.58;;
53505;SDS011;39388;50.936;6.848;2022-10-31T16:19:02;9.05;;;3.42;;
53505;SDS011;39388;50.936;6.848;2022-10-31T16:21:36;8.38;;;3.70;;
53505;SDS011;39388;50.936;6.848;2022-10-31T16:24:25;6.80;;;3.58;;
53505;SDS011;39388;50.936;6.848;2022-10-31T16:27:05;6.18;;;3.80;;
53505;SDS011;39388;50.936;6.848;2022-10-31T16:29:46;6.78;;;3.58;;
53505;SDS011;39388;50.936;6.848;2022-10-31T16:32:23;5.30;;;3.40;;
53505;SDS011;39388;50.936;6.848;2022-10-31T16:34:58;6.00;;;3.50;;
53505;SDS011;39388;50.936;6.848;2022-10-31T16:37:48;7.40;;;3.67;;
53505;SDS011;39388;50.936;6.848;2022-10-31T16:40:18;6.50;;;3.55;;
53505;SDS011;39388;50.936;6.848;2022-10-31T16:42:50;9.10;;;3.60;;
53505;SDS011;39388;50.936;6.848;2022-10-31T16:45:22;8.25;;;3.35;;
53505;SDS011;39388;50.936;6.848;2022-10-31T16:47:53;7.00;;;3.53;;
53505;SDS011;39388;50.936;6.848;2022-10-31T16:50:25;9.48;;;3.90;;
53505;SDS011;39388;50.936;6.848;2022-10-31T16:52:56;8.90;;;3.60;;
53505;SDS011;39388;50.936;6.848;2022-10-31T16:55:26;9.90;;;4.18;;
53505;SDS011;39388;50.936;6.848;2022-10-31T16:57:57;6.32;;;3.83;;
53505;SDS011;39388;50.936;6.848;2022-10-31T17:00:28;8.38;;;3.65;;
53505;SDS011;39388;50.936;6.848;2022-10-31T17:02:58;6.32;;;3.50;;
53505;SDS011;39388;50.936;6.848;2022-10-31T17:05:29;9.85;;;4.10;;
53505;SDS011;39388;50.936;6.848;2022-10-31T17:07:59;7.40;;;3.95;;
53505;SDS011;39388;50.936;6.848;2022-10-31T17:10:30;6.10;;;3.42;;
53505;SDS011;39388;50.936;6.848;2022-10-31T17:13:01;8.63;;;3.58;;
53505;SDS011;39388;50.936;6.848;2022-10-31T17:15:36;8.00;;;3.53;;
53505;SDS011;39388;50.936;6.848;2022-10-31T17:18:11;8.07;;;3.58;;
53505;SDS011;39388;50.936;6.848;2022-10-31T17:20:43;10.43;;;3.97;;
53505;SDS011;39388;50.936;6.848;2022-10-31T17:23:15;8.75;;;4.22;;
53505;SDS011;39388;50.936;6.848;2022-10-31T17:25:46;8.43;;;3.65;;
53505;SDS011;39388;50.936;6.848;2022-10-31T17:28:16;9.20;;;3.75;;
53505;SDS011;39388;50.936;6.848;2022-10-31T17:30:47;7.75;;;3.40;;
53505;SDS011;39388;50.936;6.848;2022-10-31T17:33:18;9.57;;;3.70;;
53505;SDS011;39388;50.936;6.848;2022-10-31T17:35:48;6.97;;;4.05;;
53505;SDS011;39388;50.936;6.848;2022-10-31T17:38:19;7.95;;;3.78;;
53505;SDS011;39388;50.936;6.848;2022-10-31T17:40:49;7.50;;;3.72;;
53505;SDS011;39388;50.936;6.848;2022-10-31T17:43:19;9.02;;;4.10;;
53505;SDS011;39388;50.936;6.848;2022-10-31T17:45:50;7.15;;;4.30;;
53505;SDS011;39388;50.936;6.848;2022-10-31T17:48:20;9.65;;;3.55;;
53505;SDS011;39388;50.936;6.848;2022-10-31T17:50:51;6.47;;;3.55;;
53505;SDS011;39388;50.936;6.848;2022-10-31T17:53:21;5.47;;;3.30;;
53505;SDS011;39388;50.936;6.848;2022-10-31T17:55:51;6.15;;;3.72;;
53505;SDS011;39388;50.936;6.848;2022-10-31T17:58:22;6.55;;;3.75;;
53505;SDS011;39388;50.936;6.848;2022-10-31T18:00:52;6.65;;;3.70;;
53505;SDS011;39388;50.936;6.848;2022-10-31T18:03:23;7.63;;;3.47;;
53505;SDS011;39388;50.936;6.848;2022-10-31T18:05:57;7.38;;;3.85;;
53505;SDS011;39388;50.936;6.848;2022-10-31T18:08:29;9.40;;;4.18;;
53505;SDS011;39388;50.936;6.848;2022-10-31T18:11:34;7.05;;;3.83;;
53505;SDS011;39388;50.936;6.848;2022-10-31T18:13:58;7.05;;;4.43;;
53505;SDS011;39388;50.936;6.848;2022-10-31T18:16:29;7.30;;;4.20;;
53505;SDS011;39388;50.936;6.848;2022-10-31T18:18:59;7.85;;;4.30;;
53505;SDS011;39388;50.936;6.848;2022-10-31T18:21:31;10.10;;;3.90;;
53505;SDS011;39388;50.936;6.848;2022-10-31T18:24:01;8.80;;;4.47;;